createdAt,value
2018-07-17T00:01:28.523Z,94.50
2018-07-17T00:03:57.899Z,94.90
2018-07-17T00:06:27.169Z,94.40
2018-07-17T00:08:56.455Z,94.30
2018-07-17T00:11:26.583Z,94.20
2018-07-17T00:13:55.961Z,94.10
2018-07-17T00:16:25.306Z,93.70
2018-07-17T00:18:54.541Z,93.20
2018-07-17T00:21:24.012Z,93.10
2018-07-17T00:23:53.349Z,92.80
2018-07-17T00:26:22.682Z,92.70
2018-07-17T00:28:52.074Z,92.20
2018-07-17T00:31:21.464Z,91.90
2018-07-17T00:33:50.865Z,91.90
2018-07-17T00:36:20.364Z,91.80
2018-07-17T00:38:49.699Z,91.50
2018-07-17T00:41:19.189Z,91.40
2018-07-17T00:43:48.550Z,91.90
2018-07-17T00:46:17.898Z,92.00
2018-07-17T00:48:47.274Z,91.50
2018-07-17T00:51:16.578Z,91.90
2018-07-17T00:53:45.991Z,92.10
2018-07-17T00:56:15.418Z,91.90
2018-07-17T00:58:44.763Z,91.50
2018-07-17T01:01:19.061Z,91.80
2018-07-17T01:03:53.539Z,92.10
2018-07-17T01:06:27.923Z,91.90
2018-07-17T01:09:02.164Z,92.10
2018-07-17T01:11:36.447Z,91.90
2018-07-17T01:14:10.006Z,92.40
2018-07-17T01:16:39.461Z,92.10
2018-07-17T01:19:08.851Z,92.60
2018-07-17T01:21:38.118Z,91.90
2018-07-17T01:24:07.498Z,92.20
2018-07-17T01:26:37.156Z,93.50
2018-07-17T01:29:06.437Z,92.90
2018-07-17T01:31:35.827Z,92.80
2018-07-17T01:34:05.132Z,93.20
2018-07-17T01:36:34.508Z,93.20
2018-07-17T01:39:03.844Z,93.00
2018-07-17T01:41:33.166Z,93.20
2018-07-17T01:44:02.804Z,93.20
2018-07-17T01:46:32.219Z,93.40
2018-07-17T01:49:01.391Z,93.20
2018-07-17T01:51:30.683Z,93.40
2018-07-17T01:53:59.817Z,93.20
2018-07-17T01:56:28.999Z,93.30
2018-07-17T01:58:58.310Z,93.10
2018-07-17T02:01:27.740Z,93.10
2018-07-17T02:03:57.110Z,93.20
2018-07-17T02:06:26.398Z,93.50
2018-07-17T02:08:55.719Z,93.90
2018-07-17T02:11:25.051Z,93.70
2018-07-17T02:13:54.513Z,93.90
2018-07-17T02:16:23.783Z,94.10
2018-07-17T02:18:53.231Z,94.30
2018-07-17T02:21:22.587Z,94.50
2018-07-17T02:23:52.057Z,94.70
2018-07-17T02:26:21.454Z,95.00
2018-07-17T02:28:50.725Z,95.60
2018-07-17T02:31:19.966Z,95.40
2018-07-17T02:33:49.157Z,95.60
2018-07-17T02:36:18.439Z,95.70
2018-07-17T02:38:48.299Z,95.90
2018-07-17T02:41:17.557Z,96.00
2018-07-17T02:43:46.978Z,96.70
2018-07-17T02:46:16.202Z,96.50
2018-07-17T02:48:45.528Z,96.00
2018-07-17T02:51:14.726Z,95.90
2018-07-17T02:53:43.990Z,96.00
2018-07-17T02:56:14.176Z,96.20
2018-07-17T02:58:43.470Z,95.70
2018-07-17T03:01:12.749Z,95.80
2018-07-17T03:03:42.033Z,95.80
2018-07-17T03:06:11.394Z,95.70
2018-07-17T03:08:40.664Z,95.90
2018-07-17T03:11:09.882Z,95.80
2018-07-17T03:13:39.219Z,95.80
2018-07-17T03:16:08.696Z,95.90
2018-07-17T03:18:41.593Z,95.90
2018-07-17T03:21:10.789Z,96.00
2018-07-17T03:23:40.041Z,96.20
2018-07-17T03:26:09.536Z,96.20
2018-07-17T03:28:38.925Z,96.30
2018-07-17T03:31:08.617Z,96.40
2018-07-17T03:33:37.941Z,96.50
2018-07-17T03:36:07.282Z,96.40
2018-07-17T03:38:36.964Z,96.50
2018-07-17T03:41:06.260Z,96.60
2018-07-17T03:43:35.599Z,98.00
2018-07-17T03:46:04.744Z,97.20
2018-07-17T03:48:34.079Z,96.30
2018-07-17T03:51:03.641Z,96.70
2018-07-17T03:53:33.127Z,97.90
2018-07-17T03:56:02.467Z,96.80
2018-07-17T03:58:31.794Z,96.90
2018-07-17T04:01:01.101Z,95.90
2018-07-17T04:03:30.378Z,95.70
2018-07-17T04:05:59.621Z,96.80
2018-07-17T04:08:29.044Z,95.90
2018-07-17T04:10:58.390Z,96.80
2018-07-17T04:13:27.900Z,96.30
2018-07-17T04:15:57.296Z,96.10
2018-07-17T04:18:26.819Z,96.00
2018-07-17T04:20:56.058Z,95.50
2018-07-17T04:23:25.300Z,95.80
2018-07-17T04:25:54.498Z,95.50
2018-07-17T04:28:23.681Z,95.40
2018-07-17T04:30:52.862Z,95.20
2018-07-17T04:33:22.149Z,95.50
2018-07-17T04:35:51.363Z,95.50
2018-07-17T04:38:20.640Z,95.40
2018-07-17T04:40:50.031Z,95.70
2018-07-17T04:43:19.305Z,95.40
2018-07-17T04:45:48.732Z,95.40
2018-07-17T04:48:17.998Z,95.50
2018-07-17T04:50:47.367Z,95.30
2018-07-17T04:53:16.723Z,95.50
2018-07-17T04:55:46.025Z,95.30
2018-07-17T04:58:15.402Z,95.20
2018-07-17T05:00:44.649Z,95.20
2018-07-17T05:03:14.073Z,95.10
2018-07-17T05:05:43.464Z,96.10
2018-07-17T05:08:12.783Z,95.40
2018-07-17T05:10:42.009Z,95.80
2018-07-17T05:13:11.246Z,95.90
2018-07-17T05:15:40.984Z,95.00
2018-07-17T05:18:10.099Z,94.80
2018-07-17T05:20:39.650Z,94.50
2018-07-17T05:23:08.974Z,94.70
2018-07-17T05:25:39.182Z,94.80
2018-07-17T05:28:08.587Z,94.20
2018-07-17T05:30:37.807Z,94.10
2018-07-17T05:33:07.086Z,93.70
2018-07-17T05:35:36.565Z,93.70
2018-07-17T05:38:06.307Z,92.70
2018-07-17T05:40:36.611Z,92.50
2018-07-17T05:43:06.075Z,92.40
2018-07-17T05:45:35.342Z,92.30
2018-07-17T05:48:04.760Z,92.90
2018-07-17T05:50:33.978Z,92.00
2018-07-17T05:53:03.793Z,92.00
2018-07-17T05:55:33.121Z,92.40
2018-07-17T05:58:02.480Z,91.90
2018-07-17T06:00:31.742Z,91.60
2018-07-17T06:03:01.035Z,91.80
2018-07-17T06:05:30.367Z,91.70
2018-07-17T06:07:59.551Z,91.20
2018-07-17T06:10:30.065Z,91.10
2018-07-17T06:12:59.400Z,90.80
2018-07-17T06:15:28.706Z,90.60
2018-07-17T06:17:58.118Z,90.80
2018-07-17T06:20:27.480Z,89.60
2018-07-17T06:22:56.837Z,89.30
2018-07-17T06:25:26.381Z,88.80
2018-07-17T06:27:55.773Z,89.30
2018-07-17T06:30:24.972Z,86.90
2018-07-17T06:32:54.401Z,86.10
2018-07-17T06:35:23.703Z,84.50
2018-07-17T06:37:53.058Z,84.20
2018-07-17T06:40:22.320Z,83.30
2018-07-17T06:42:51.683Z,83.00
2018-07-17T06:45:20.978Z,81.30
2018-07-17T06:47:50.357Z,80.40
2018-07-17T06:50:19.756Z,80.40
2018-07-17T06:52:49.038Z,80.60
2018-07-17T06:55:18.460Z,78.40
2018-07-17T06:57:47.777Z,77.90
2018-07-17T07:00:17.048Z,77.50
2018-07-17T07:02:46.489Z,77.40
2018-07-17T07:05:16.829Z,77.60
2018-07-17T07:07:46.071Z,76.70
2018-07-17T07:10:15.499Z,75.40
2018-07-17T07:12:44.786Z,74.60
2018-07-17T07:15:14.178Z,73.80
2018-07-17T07:17:43.550Z,73.20
2018-07-17T07:20:13.101Z,72.80
2018-07-17T07:22:43.308Z,72.50
2018-07-17T07:25:12.701Z,73.00
2018-07-17T07:27:42.059Z,72.70
2018-07-17T07:30:11.306Z,72.10
2018-07-17T07:32:40.632Z,72.10
2018-07-17T07:35:10.029Z,71.10
2018-07-17T07:37:39.360Z,69.80
2018-07-17T07:40:08.607Z,70.30
2018-07-17T07:42:37.994Z,69.80
2018-07-17T07:45:07.284Z,69.00
2018-07-17T07:47:36.623Z,68.60
2018-07-17T07:50:06.096Z,66.70
2018-07-17T07:52:35.594Z,64.80
2018-07-17T07:55:05.017Z,64.00
2018-07-17T07:57:34.387Z,62.40
2018-07-17T08:00:04.830Z,61.40
2018-07-17T08:02:34.182Z,61.10
2018-07-17T08:05:04.451Z,61.60
2018-07-17T08:07:33.845Z,60.90
2018-07-17T08:10:03.161Z,62.40
2018-07-17T08:12:32.604Z,63.00
2018-07-17T08:15:01.884Z,62.80
2018-07-17T08:17:31.176Z,63.40
2018-07-17T08:20:00.399Z,64.00
2018-07-17T08:22:29.910Z,64.50
2018-07-17T08:24:59.451Z,65.00
2018-07-17T08:27:28.730Z,65.30
2018-07-17T08:29:57.926Z,65.40
2018-07-17T08:32:27.405Z,66.00
2018-07-17T08:34:56.776Z,66.10
2018-07-17T08:37:26.242Z,66.50
2018-07-17T08:39:55.703Z,65.90
2018-07-17T08:42:24.935Z,65.30
2018-07-17T08:44:54.291Z,65.70
2018-07-17T08:47:23.567Z,65.30
2018-07-17T08:49:53.021Z,64.50
2018-07-17T08:52:22.639Z,64.60
2018-07-17T08:54:52.211Z,64.00
2018-07-17T08:57:21.573Z,63.20
2018-07-17T08:59:50.989Z,61.50
2018-07-17T09:02:20.376Z,62.10
2018-07-17T09:04:49.738Z,61.50
2018-07-17T09:07:19.224Z,62.10
2018-07-17T09:09:48.540Z,61.30
2018-07-17T09:12:17.943Z,61.40
2018-07-17T09:14:47.380Z,61.80
2018-07-17T09:17:16.754Z,62.80
2018-07-17T09:19:46.356Z,64.20
2018-07-17T09:22:15.841Z,64.30
2018-07-17T09:24:45.386Z,65.00
2018-07-17T09:27:14.960Z,65.50
2018-07-17T09:29:44.402Z,65.60
2018-07-17T09:32:13.660Z,65.90
2018-07-17T09:34:42.933Z,66.50
2018-07-17T09:37:12.367Z,66.90
2018-07-17T09:39:41.711Z,67.20
2018-07-17T09:42:11.238Z,67.30
2018-07-17T09:44:40.691Z,67.60
2018-07-17T09:47:10.102Z,67.70
2018-07-17T09:49:39.598Z,68.10
2018-07-17T09:52:08.936Z,68.30
2018-07-17T09:54:38.325Z,67.80
2018-07-17T09:57:07.702Z,67.20
2018-07-17T09:59:37.122Z,66.60
2018-07-17T10:02:11.452Z,65.70
2018-07-17T10:04:40.930Z,65.10
2018-07-17T10:07:10.326Z,64.00
2018-07-17T10:09:39.464Z,62.70
2018-07-17T10:12:08.825Z,61.00
2018-07-17T10:14:38.278Z,58.40
2018-07-17T10:17:07.527Z,56.80
2018-07-17T10:19:37.042Z,54.80
2018-07-17T10:22:06.350Z,53.80
2018-07-17T10:24:36.093Z,53.60
2018-07-17T10:27:05.585Z,53.90
2018-07-17T10:29:34.850Z,53.60
2018-07-17T10:32:04.157Z,53.70
2018-07-17T10:34:33.345Z,53.10
2018-07-17T10:37:02.750Z,51.60
2018-07-17T10:39:32.018Z,50.30
2018-07-17T10:42:01.474Z,50.60
2018-07-17T10:44:30.854Z,49.80
2018-07-17T10:47:00.097Z,48.60
2018-07-17T10:49:29.347Z,48.30
2018-07-17T10:51:58.778Z,47.00
2018-07-17T10:54:28.106Z,45.20
2018-07-17T10:56:57.503Z,44.40
2018-07-17T10:59:27.081Z,44.80
2018-07-17T11:01:56.476Z,45.00
2018-07-17T11:04:26.068Z,44.60
2018-07-17T11:06:55.337Z,44.40
2018-07-17T11:09:24.621Z,45.10
2018-07-17T11:11:54.054Z,46.10
2018-07-17T11:14:23.299Z,46.20
2018-07-17T11:16:52.554Z,47.10
2018-07-17T11:19:21.890Z,46.90
2018-07-17T11:21:51.150Z,46.80
2018-07-17T11:24:20.536Z,46.90
2018-07-17T11:26:49.966Z,47.00
2018-07-17T11:29:19.374Z,47.90
2018-07-17T11:31:48.801Z,48.00
2018-07-17T11:34:18.177Z,48.30
2018-07-17T11:36:48.369Z,47.60
2018-07-17T11:39:17.806Z,48.10
2018-07-17T11:41:47.304Z,48.00
2018-07-17T11:44:16.755Z,47.30
2018-07-17T11:46:46.246Z,47.00
2018-07-17T11:49:15.688Z,47.80
2018-07-17T11:51:45.146Z,47.20
2018-07-17T11:54:14.465Z,46.50
2018-07-17T11:56:43.975Z,46.10
2018-07-17T11:59:13.426Z,45.10
2018-07-17T12:01:43.001Z,44.70
2018-07-17T12:04:12.474Z,44.70
2018-07-17T12:06:42.245Z,44.40
2018-07-17T12:09:11.650Z,44.30
2018-07-17T12:11:42.108Z,44.60
2018-07-17T12:14:11.366Z,44.20
2018-07-17T12:16:40.600Z,44.60
2018-07-17T12:19:09.895Z,43.40
2018-07-17T12:21:39.274Z,43.50
2018-07-17T12:24:08.691Z,43.90
2018-07-17T12:26:38.064Z,43.50
2018-07-17T12:29:07.687Z,43.20
2018-07-17T12:31:37.348Z,43.90
2018-07-17T12:34:07.220Z,44.50
2018-07-17T12:36:36.624Z,45.10
2018-07-17T12:39:08.254Z,46.10
2018-07-17T12:41:37.776Z,47.40
2018-07-17T12:44:07.258Z,47.50
2018-07-17T12:46:36.873Z,48.10
2018-07-17T12:49:06.373Z,48.80
2018-07-17T12:51:35.827Z,49.30
2018-07-17T12:54:05.324Z,50.00
2018-07-17T12:56:34.632Z,50.70
2018-07-17T12:59:04.058Z,51.10
2018-07-17T13:01:33.460Z,51.60
2018-07-17T13:04:02.951Z,52.00
2018-07-17T13:06:32.498Z,52.10
2018-07-17T13:09:01.839Z,52.00
2018-07-17T13:11:31.120Z,52.20
2018-07-17T13:14:00.636Z,52.80
2018-07-17T13:16:30.177Z,51.40
2018-07-17T13:18:59.678Z,51.70
2018-07-17T13:21:29.032Z,52.00
2018-07-17T13:23:58.366Z,51.40
2018-07-17T13:26:28.310Z,52.80
2018-07-17T13:28:57.594Z,57.80
2018-07-17T13:31:27.190Z,62.30
2018-07-17T13:33:56.676Z,68.40
2018-07-17T13:36:26.117Z,78.80
2018-07-17T13:38:55.460Z,91.30
2018-07-17T13:41:24.930Z,96.50
2018-07-17T13:43:54.216Z,99.90
2018-07-17T13:46:23.538Z,99.90
2018-07-17T13:48:52.737Z,99.90
2018-07-17T13:51:22.051Z,99.90
2018-07-17T13:53:51.649Z,99.90
2018-07-17T13:56:21.525Z,99.90
2018-07-17T13:58:50.756Z,99.90
2018-07-17T14:01:20.125Z,99.90
2018-07-17T14:03:49.670Z,99.90
2018-07-17T14:06:20.133Z,99.90
2018-07-17T14:08:58.980Z,99.90
2018-07-17T14:11:36.229Z,99.90
2018-07-17T14:14:06.750Z,99.90
2018-07-17T14:16:36.154Z,99.90
2018-07-17T14:19:06.312Z,99.90
2018-07-17T14:21:35.675Z,99.90
2018-07-17T14:24:05.067Z,99.90
2018-07-17T14:26:34.377Z,99.90
2018-07-17T14:29:03.785Z,99.90
2018-07-17T14:31:33.576Z,99.90
2018-07-17T14:34:03.149Z,99.90
2018-07-17T14:36:32.753Z,99.20
2018-07-17T14:39:02.091Z,99.70
2018-07-17T14:41:31.513Z,99.00
2018-07-17T14:44:00.992Z,96.40
2018-07-17T14:46:31.436Z,96.50
2018-07-17T14:49:00.825Z,92.10
2018-07-17T14:51:30.218Z,91.00
2018-07-17T14:53:59.503Z,95.20
2018-07-17T14:56:29.090Z,97.90
2018-07-17T14:58:58.663Z,98.20
2018-07-17T15:01:29.171Z,99.10
2018-07-17T15:03:58.654Z,99.60
2018-07-17T15:06:28.281Z,99.50
2018-07-17T15:08:57.634Z,98.30
2018-07-17T15:11:27.587Z,98.90
2018-07-17T15:13:57.173Z,99.30
2018-07-17T15:19:31.563Z,96.20
2018-07-17T15:28:05.215Z,96.10
2018-07-17T15:30:36.411Z,94.00
2018-07-17T15:33:06.019Z,93.10
2018-07-17T15:35:35.554Z,92.80
2018-07-17T15:38:08.309Z,90.80
2018-07-17T15:40:38.303Z,90.60
2018-07-17T15:43:11.026Z,89.30
2018-07-17T15:45:40.928Z,88.10
2018-07-17T15:48:11.131Z,88.70
2018-07-17T15:50:40.846Z,90.10
2018-07-17T15:53:11.889Z,90.00
2018-07-17T15:55:41.431Z,91.10
2018-07-17T16:01:00.055Z,91.10
2018-07-17T16:03:42.989Z,91.00
2018-07-17T16:06:12.637Z,90.70
2018-07-17T16:08:42.855Z,90.20
2018-07-17T16:11:12.962Z,90.60
2018-07-17T16:13:42.691Z,91.20
2018-07-17T16:16:12.154Z,92.20
2018-07-17T16:18:41.763Z,91.80
2018-07-17T16:21:11.228Z,92.10
2018-07-17T16:23:40.693Z,92.00
2018-07-17T16:26:10.215Z,91.90
2018-07-17T16:28:39.924Z,91.70
2018-07-17T16:31:09.394Z,91.20
2018-07-17T16:38:53.272Z,90.60
2018-07-17T16:41:22.926Z,90.20
2018-07-17T16:43:52.686Z,90.30
2018-07-17T16:46:22.235Z,89.10
2018-07-17T16:48:52.026Z,87.70
2018-07-17T16:51:28.035Z,87.50
2018-07-17T16:54:00.061Z,86.90
2018-07-17T16:56:37.044Z,88.30
2018-07-17T17:01:51.332Z,86.40
2018-07-17T17:04:20.932Z,86.60
2018-07-17T17:06:50.307Z,86.50
2018-07-17T17:09:19.725Z,86.90
2018-07-17T17:11:49.381Z,86.60
2018-07-17T17:14:26.701Z,87.40
2018-07-17T17:16:56.392Z,87.70
2018-07-17T17:19:26.642Z,87.40
2018-07-17T17:21:56.327Z,87.30
2018-07-17T17:24:26.608Z,86.50
2018-07-17T17:26:59.139Z,87.00
2018-07-17T17:29:35.139Z,86.70
2018-07-17T17:32:05.510Z,86.60
2018-07-17T17:34:35.987Z,86.90
2018-07-17T17:37:05.475Z,86.30
2018-07-17T17:39:35.178Z,87.50
2018-07-17T17:42:04.443Z,86.40
2018-07-17T17:44:38.830Z,87.10
2018-07-17T17:47:10.799Z,86.70
2018-07-17T17:49:41.987Z,87.00
2018-07-17T17:52:22.472Z,87.00
2018-07-17T17:54:51.854Z,86.70
2018-07-17T17:57:21.523Z,86.90
2018-07-17T17:59:51.072Z,87.30
2018-07-17T18:02:20.588Z,86.40
2018-07-17T18:04:50.043Z,86.70
2018-07-17T18:07:19.727Z,86.30
2018-07-17T18:09:49.330Z,85.40
2018-07-17T18:12:18.819Z,85.00
2018-07-17T18:14:48.322Z,85.00
2018-07-17T18:17:18.037Z,84.90
2018-07-17T18:19:47.588Z,84.90
2018-07-17T18:22:17.019Z,85.20
2018-07-17T18:24:46.901Z,84.70
2018-07-17T18:27:16.533Z,85.60
2018-07-17T18:29:46.956Z,85.50
2018-07-17T18:32:16.584Z,85.30
2018-07-17T18:34:46.084Z,85.00
2018-07-17T18:37:15.753Z,85.20
2018-07-17T18:39:45.180Z,84.80
2018-07-17T18:42:14.826Z,85.20
2018-07-17T18:44:47.962Z,84.70
2018-07-17T18:47:18.398Z,84.20
2018-07-17T18:49:48.591Z,84.00
2018-07-17T18:52:18.189Z,83.50
2018-07-17T18:54:48.037Z,83.50
2018-07-17T18:57:17.807Z,83.20
2018-07-17T18:59:47.714Z,82.90
2018-07-17T19:02:17.573Z,82.20
2018-07-17T19:04:47.287Z,81.40
2018-07-17T19:07:16.931Z,81.50
2018-07-17T19:09:47.437Z,80.50
2018-07-17T19:12:17.458Z,81.60
2018-07-17T19:14:51.377Z,80.40
2018-07-17T19:17:21.912Z,80.20
2018-07-17T19:19:52.799Z,80.30
2018-07-17T19:22:24.049Z,79.20
2018-07-17T19:24:53.677Z,79.10
2018-07-17T19:27:24.617Z,79.00
2018-07-17T19:30:15.371Z,79.20
2018-07-17T19:32:44.980Z,79.00
2018-07-17T19:35:14.798Z,79.30
2018-07-17T19:38:00.213Z,79.30
2018-07-17T19:40:41.121Z,80.00
2018-07-17T19:43:17.448Z,80.20
2018-07-17T19:45:53.204Z,80.50
2018-07-17T19:48:24.380Z,80.50
2018-07-17T19:50:58.413Z,80.80
2018-07-17T19:53:29.014Z,80.80
2018-07-17T19:56:00.319Z,81.20
2018-07-17T19:58:31.786Z,81.70
2018-07-17T20:01:10.900Z,82.20
2018-07-17T20:04:12.842Z,82.70
2018-07-17T20:06:47.134Z,83.30
2018-07-17T20:09:17.216Z,83.80
2018-07-17T20:11:46.845Z,84.40
2018-07-17T20:14:16.519Z,85.20
2018-07-17T20:16:46.023Z,85.60
2018-07-17T20:19:15.369Z,86.40
2018-07-17T20:21:44.782Z,87.20
2018-07-17T20:24:14.224Z,87.70
2018-07-17T20:26:43.844Z,88.70
2018-07-17T20:29:13.241Z,89.50
2018-07-17T20:31:42.717Z,90.00
2018-07-17T20:34:11.961Z,90.20
2018-07-17T20:36:41.337Z,90.50
2018-07-17T20:39:11.186Z,90.90
2018-07-17T20:41:41.032Z,90.90
2018-07-17T20:44:10.527Z,91.10
2018-07-17T20:46:40.057Z,91.10
2018-07-17T20:49:09.599Z,91.10
2018-07-17T20:51:39.397Z,91.20
2018-07-17T20:54:08.798Z,90.80
2018-07-17T20:56:38.116Z,90.60
2018-07-17T20:59:07.404Z,90.70
2018-07-17T21:01:37.102Z,90.30
2018-07-17T21:04:06.543Z,90.40
2018-07-17T21:06:35.981Z,90.50
2018-07-17T21:09:07.312Z,90.50
2018-07-17T21:11:36.671Z,90.40
2018-07-17T21:14:06.524Z,90.20
2018-07-17T21:16:35.778Z,90.50
2018-07-17T21:19:05.114Z,90.30
2018-07-17T21:21:34.722Z,90.40
2018-07-17T21:24:04.366Z,90.20
2018-07-17T21:26:33.919Z,90.80
2018-07-17T21:29:03.359Z,89.70
2018-07-17T21:31:32.760Z,90.20
2018-07-17T21:34:02.502Z,89.90
2018-07-17T21:36:39.771Z,89.30
2018-07-17T21:39:11.598Z,89.10
2018-07-17T21:41:41.274Z,89.70
2018-07-17T21:44:10.787Z,86.30
2018-07-17T21:46:41.087Z,87.10
2018-07-17T21:49:10.392Z,87.70
2018-07-17T21:51:39.622Z,87.60
2018-07-17T21:54:08.998Z,88.00
2018-07-17T21:56:38.236Z,88.20
2018-07-17T21:59:07.593Z,88.10
2018-07-17T22:01:37.504Z,88.60
2018-07-17T22:04:07.024Z,89.80
2018-07-17T22:06:36.380Z,90.40
2018-07-17T22:09:08.604Z,90.80
2018-07-17T22:11:38.034Z,91.40
2018-07-17T22:14:07.338Z,91.90
2018-07-17T22:16:36.700Z,92.10
2018-07-17T22:19:06.125Z,92.40
2018-07-17T22:21:35.482Z,92.80
2018-07-17T22:24:04.868Z,93.30
2018-07-17T22:26:34.117Z,93.60
2018-07-17T22:29:03.609Z,93.90
2018-07-17T22:31:32.829Z,94.20
2018-07-17T22:34:02.322Z,94.30
2018-07-17T22:36:31.664Z,94.60
2018-07-17T22:39:00.921Z,94.80
2018-07-17T22:41:30.358Z,95.40
2018-07-17T22:43:59.718Z,95.70
2018-07-17T22:46:28.990Z,95.90
2018-07-17T22:48:58.093Z,96.20
2018-07-17T22:51:27.248Z,97.30
2018-07-17T22:53:56.608Z,98.00
2018-07-17T22:56:26.043Z,93.00
2018-07-17T22:58:55.427Z,92.30
2018-07-17T23:01:24.868Z,92.90
2018-07-17T23:03:54.225Z,90.30
2018-07-17T23:06:23.424Z,86.80
2018-07-17T23:08:52.924Z,82.50
2018-07-17T23:11:22.324Z,82.70
2018-07-17T23:13:51.742Z,78.20
2018-07-17T23:16:21.011Z,74.90
2018-07-17T23:18:50.352Z,76.40
2018-07-17T23:21:19.614Z,74.50
2018-07-17T23:23:48.768Z,73.90
2018-07-17T23:26:18.129Z,72.90
2018-07-17T23:28:47.342Z,73.50
2018-07-17T23:31:16.630Z,72.20
2018-07-17T23:33:45.894Z,71.60
2018-07-17T23:36:15.444Z,71.30
2018-07-17T23:38:44.708Z,70.90
2018-07-17T23:41:13.985Z,70.50
2018-07-17T23:43:43.286Z,70.60
2018-07-17T23:46:12.750Z,70.00
2018-07-17T23:48:42.229Z,70.40
2018-07-17T23:51:11.627Z,69.60
2018-07-17T23:53:40.860Z,69.30
2018-07-17T23:56:10.191Z,69.40
2018-07-17T23:58:39.595Z,69.50
